Time;durP1;ratioP1;P1;durP2;ratioP2;P2;SDS_P1;SDS_P2;PMS_P1;PMS_P2;Temp;Humidity;BMP_temperature;BMP_pressure;BME280_temperature;BME280_humidity;BME280_pressure;Samples;Min_cycle;Max_cycle;Signal;HPM_P1;HPM_P2
2022/09/27 00:00:58;;;;;;;40.63;37.57;;;;;;;11.49;100.00;99144.97;5051408;28;20979;-42
2022/09/27 00:03:26;;;;;;;41.73;38.43;;;;;;;11.48;100.00;99138.00;5052190;28;20465;-41
2022/09/27 00:06:04;;;;;;;41.10;38.10;;;;;;;11.48;100.00;99132.69;5051264;28;20490;-41
2022/09/27 00:08:32;;;;;;;42.00;38.80;;;;;;;11.49;100.00;99138.81;5051666;28;20430;-42
2022/09/27 00:11:01;;;;;;;43.33;40.03;;;;;;;11.50;100.00;99140.44;5051315;28;20544;-43
2022/09/27 00:13:29;;;;;;;44.77;41.10;;;;;;;11.50;100.00;99143.09;5051498;28;20481;-41
2022/09/27 00:15:58;;;;;;;42.13;39.03;;;;;;;11.48;100.00;99135.34;5051161;28;20468;-41
2022/09/27 00:18:26;;;;;;;42.33;39.17;;;;;;;11.50;100.00;99133.22;5051590;28;20424;-43
2022/09/27 00:20:54;;;;;;;45.10;41.70;;;;;;;11.52;100.00;99144.50;5032448;28;21005;-42
2022/09/27 00:23:23;;;;;;;44.03;40.63;;;;;;;11.51;100.00;99139.38;5031496;28;20482;-43
2022/09/27 00:25:57;;;;;;;45.00;41.57;;;;;;;11.52;100.00;99133.00;5031080;28;20467;-42
2022/09/27 00:28:26;;;;;;;46.23;42.77;;;;;;;11.54;100.00;99141.56;5031737;28;20431;-42
2022/09/27 00:30:54;;;;;;;43.73;40.43;;;;;;;11.52;100.00;99136.50;5036291;28;20479;-42
2022/09/27 00:33:21;;;;;;;47.90;43.97;;;;;;;11.51;100.00;99131.38;5051319;28;20968;-41
2022/09/27 00:35:49;;;;;;;42.67;39.57;;;;;;;11.53;100.00;99124.75;5050943;28;20471;-41
2022/09/27 00:38:17;;;;;;;40.23;37.20;;;;;;;11.55;100.00;99130.66;5051325;28;20435;-42
2022/09/27 00:40:47;;;;;;;43.47;40.27;;;;;;;11.53;100.00;99126.59;5051014;28;20450;-42
2022/09/27 00:43:19;;;;;;;41.63;38.60;;;;;;;11.55;100.00;99128.00;5051512;28;20481;-41
2022/09/27 00:45:50;;;;;;;43.17;39.50;;;;;;;11.57;100.00;99131.22;5050894;28;20462;-41
2022/09/27 00:48:22;;;;;;;42.57;39.60;;;;;;;11.56;100.00;99121.59;5052935;28;20458;-42
2022/09/27 00:50:53;;;;;;;45.13;41.70;;;;;;;11.59;100.00;99128.31;5054950;28;20479;-43
2022/09/27 00:53:26;;;;;;;42.67;39.30;;;;;;;11.60;100.00;99120.06;5055437;28;20832;-42
2022/09/27 00:55:59;;;;;;;41.83;38.63;;;;;;;11.60;100.00;99120.06;5054866;28;20470;-41
2022/09/27 00:58:31;;;;;;;42.73;39.40;;;;;;;11.61;100.00;99124.38;5055206;28;20427;-41
2022/09/27 01:01:02;;;;;;;41.77;38.57;;;;;;;11.63;100.00;99124.91;5055175;28;20864;-41
2022/09/27 01:03:38;;;;;;;45.97;42.27;;;;;;;11.61;100.00;99123.56;5054964;28;20431;-42
2022/09/27 01:06:08;;;;;;;45.97;42.27;;;;;;;11.62;100.00;99120.63;5054582;28;20466;-41
2022/09/27 01:08:36;;;;;;;46.87;42.87;;;;;;;11.62;100.00;99111.78;5055194;28;20481;-43
2022/09/27 01:11:14;;;;;;;43.33;40.13;;;;;;;11.62;100.00;99112.59;5054680;28;20475;-41
2022/09/27 01:13:51;;;;;;;43.13;39.67;;;;;;;11.60;100.00;99119.25;5054831;28;20431;-41
2022/09/27 01:16:30;;;;;;;41.77;38.67;;;;;;;11.59;100.00;99113.09;5054451;28;20493;-42
2022/09/27 01:19:10;;;;;;;45.30;41.33;;;;;;;11.60;100.00;99117.41;5052137;28;20937;-41
2022/09/27 01:21:44;;;;;;;44.00;40.40;;;;;;;11.61;100.00;99111.00;5045275;28;20527;-43
2022/09/27 01:24:36;;;;;;;44.43;40.73;;;;;;;11.62;100.00;99107.28;5054683;28;20831;-42
2022/09/27 01:27:28;;;;;;;49.83;45.40;;;;;;;11.62;100.00;99106.47;5054756;28;20427;-42
2022/09/27 01:30:24;;;;;;;46.87;43.07;;;;;;;11.62;100.00;99101.13;5054481;28;20435;-42
2022/09/27 01:32:58;;;;;;;46.00;42.37;;;;;;;11.61;100.00;99103.00;5054362;28;20427;-42
2022/09/27 01:35:34;;;;;;;47.33;43.43;;;;;;;11.61;100.00;99103.00;5054013;28;20515;-41
2022/09/27 01:38:13;;;;;;;47.47;43.37;;;;;;;11.63;100.00;99108.09;5054408;28;20411;-41
2022/09/27 01:40:51;;;;;;;48.17;44.07;;;;;;;11.64;100.00;99102.53;5054536;28;20855;-42
2022/09/27 01:43:24;;;;;;;46.73;42.70;;;;;;;11.64;100.00;99099.84;5054671;28;20418;-43
2022/09/27 01:45:58;;;;;;;49.33;44.80;;;;;;;11.63;100.00;99103.56;5053948;28;20474;-42
2022/09/27 01:48:33;;;;;;;45.30;41.67;;;;;;;11.65;100.00;99098.78;5054566;28;20411;-44
2022/09/27 01:51:07;;;;;;;46.73;42.60;;;;;;;11.65;100.00;99097.97;5053838;28;20882;-41
2022/09/27 01:53:38;;;;;;;47.30;43.20;;;;;;;11.64;100.00;99101.72;5054009;28;20831;-43
2022/09/27 01:56:12;;;;;;;45.87;41.70;;;;;;;11.64;100.00;99097.19;5053687;28;20467;-42
2022/09/27 01:58:45;;;;;;;45.73;41.83;;;;;;;11.64;100.00;99086.50;5053730;28;20435;-42
2022/09/27 02:01:17;;;;;;;45.33;41.73;;;;;;;11.64;100.00;99085.69;5053744;28;21041;-41
2022/09/27 02:03:49;;;;;;;42.93;39.53;;;;;;;11.63;100.00;99089.41;5053923;28;20427;-43
2022/09/27 02:06:21;;;;;;;45.87;42.00;;;;;;;11.64;100.00;99083.00;5053469;28;20521;-42
2022/09/27 02:08:54;;;;;;;46.77;42.70;;;;;;;11.65;100.00;99085.44;5054068;28;20416;-43
2022/09/27 02:11:22;;;;;;;42.90;39.30;;;;;;;11.64;100.00;99077.69;5053459;28;20521;-41
2022/09/27 02:13:54;;;;;;;44.30;40.37;;;;;;;11.64;100.00;99075.81;5053756;28;20432;-41
2022/09/27 02:16:32;;;;;;;42.23;38.63;;;;;;;11.63;100.00;99074.19;5053158;28;20991;-43
2022/09/27 02:19:09;;;;;;;40.73;37.67;;;;;;;11.64;100.00;99075.00;5050755;28;20530;-41
2022/09/27 02:21:42;;;;;;;42.97;39.63;;;;;;;11.63;100.00;99082.19;5043821;28;20476;-41
2022/09/27 02:24:14;;;;;;;42.90;38.87;;;;;;;11.63;100.00;99076.88;5053519;28;20920;-42
2022/09/27 02:26:45;;;;;;;41.20;38.03;;;;;;;11.60;100.00;99072.00;5053071;28;20467;-42
2022/09/27 02:29:18;;;;;;;44.77;41.00;;;;;;;11.58;100.00;99079.47;5053382;28;20435;-42
2022/09/27 02:31:47;;;;;;;40.17;37.07;;;;;;;11.59;100.00;99074.91;5053097;28;20533;-41
2022/09/27 02:34:19;;;;;;;41.00;38.00;;;;;;;11.58;100.00;99075.97;5053345;28;20986;-41
2022/09/27 02:36:48;;;;;;;41.13;37.67;;;;;;;11.57;100.00;99066.34;5052881;28;21034;-43
2022/09/27 02:39:18;;;;;;;37.50;34.60;;;;;;;11.57;100.00;99067.16;5053203;28;20439;-43
2022/09/27 02:41:46;;;;;;;40.03;36.70;;;;;;;11.58;100.00;99075.97;5053147;28;20524;-42
2022/09/27 02:44:16;;;;;;;35.93;32.93;;;;;;;11.55;100.00;99074.59;5053452;28;20435;-42
2022/09/27 02:47:08;;;;;;;39.00;35.80;;;;;;;11.58;100.00;99067.97;5052701;28;20521;-42
2022/09/27 02:49:49;;;;;;;42.07;37.97;;;;;;;11.58;100.00;99073.31;5053073;28;20424;-42
2022/09/27 02:52:30;;;;;;;39.57;36.60;;;;;;;11.58;100.00;99063.44;5053012;28;20593;-41
2022/09/27 02:55:08;;;;;;;39.90;36.77;;;;;;;11.57;100.00;99064.47;5052471;28;20455;-41
2022/09/27 02:57:47;;;;;;;40.70;37.43;;;;;;;11.58;100.00;99058.09;5052980;28;20481;-41
2022/09/27 03:00:19;;;;;;;41.80;38.30;;;;;;;11.58;100.00;99058.09;5053028;28;20423;-41
2022/09/27 03:02:58;;;;;;;40.43;36.90;;;;;;;11.60;100.00;99057.84;5052802;28;20424;-41
2022/09/27 03:05:29;;;;;;;42.13;38.60;;;;;;;11.58;100.00;99052.75;5052393;28;20482;-41
2022/09/27 03:07:56;;;;;;;44.50;40.63;;;;;;;11.58;100.00;99057.28;5052687;28;20481;-41
2022/09/27 03:10:26;;;;;;;40.20;36.87;;;;;;;11.56;100.00;99049.50;5051688;28;20443;-42
2022/09/27 03:12:55;;;;;;;41.17;37.70;;;;;;;11.57;100.00;99053.81;5052367;28;20474;-41
2022/09/27 03:15:23;;;;;;;43.03;39.17;;;;;;;11.56;100.00;99052.19;5045393;28;20517;-41
2022/09/27 03:17:52;;;;;;;45.23;41.10;;;;;;;11.55;100.00;99053.25;5044318;28;20778;-42
2022/09/27 03:20:19;;;;;;;40.57;37.17;;;;;;;11.53;100.00;99054.53;5052191;28;20489;-41
2022/09/27 03:22:47;;;;;;;38.67;35.53;;;;;;;11.55;100.00;99052.44;5040315;28;20925;-42
2022/09/27 03:25:15;;;;;;;38.37;35.17;;;;;;;11.56;100.00;99054.84;5031914;28;20471;-41
2022/09/27 03:27:43;;;;;;;37.33;34.43;;;;;;;11.55;100.00;99047.91;5032307;28;20440;-42
2022/09/27 03:30:13;;;;;;;35.50;32.60;;;;;;;11.54;100.00;99050.81;5032289;28;20944;-42
2022/09/27 03:32:42;;;;;;;35.77;32.97;;;;;;;11.53;100.00;99046.50;5032420;28;20468;-42
2022/09/27 03:35:12;;;;;;;38.10;35.27;;;;;;;11.54;100.00;99038.28;5031740;28;20526;-42
2022/09/27 03:37:40;;;;;;;37.70;34.20;;;;;;;11.54;100.00;99030.25;5032218;28;20432;-41
2022/09/27 03:40:09;;;;;;;35.57;32.90;;;;;;;11.53;100.00;99035.84;5032039;28;20490;-41
2022/09/27 03:42:37;;;;;;;39.20;35.90;;;;;;;11.54;100.00;99032.13;5038075;28;20448;-42
2022/09/27 03:45:06;;;;;;;36.33;33.63;;;;;;;11.54;100.00;99032.13;5042270;28;20455;-44
2022/09/27 03:47:33;;;;;;;38.80;35.60;;;;;;;11.54;100.00;99035.59;5051920;28;20427;-43
2022/09/27 03:50:01;;;;;;;39.67;35.90;;;;;;;11.55;100.00;99039.09;5051765;28;20439;-42
2022/09/27 03:52:30;;;;;;;37.77;34.50;;;;;;;11.54;100.00;99034.78;5051503;28;20887;-41
2022/09/27 03:54:57;;;;;;;37.13;34.10;;;;;;;11.54;100.00;99032.13;5051509;28;20466;-43
2022/09/27 03:57:29;;;;;;;34.23;31.63;;;;;;;11.53;100.00;99025.97;5052131;28;20426;-41
2022/09/27 03:59:58;;;;;;;34.00;31.40;;;;;;;11.53;100.00;99028.63;5052029;28;20439;-42
2022/09/27 04:02:26;;;;;;;37.63;34.60;;;;;;;11.54;100.00;99032.94;5051422;28;20463;-41
2022/09/27 04:04:54;;;;;;;35.70;32.90;;;;;;;11.52;100.00;99028.91;5051085;28;20462;-41
2022/09/27 04:07:22;;;;;;;35.53;32.57;;;;;;;11.51;100.00;99022.75;5051851;28;20439;-42
2022/09/27 04:09:51;;;;;;;33.20;30.70;;;;;;;11.50;100.00;99023.78;5051581;28;21002;-44
2022/09/27 04:12:19;;;;;;;32.60;29.90;;;;;;;11.49;100.00;99026.72;5051548;28;20494;-41
2022/09/27 04:14:46;;;;;;;32.03;29.73;;;;;;;11.47;100.00;99024.28;5051101;28;20504;-43
2022/09/27 04:17:14;;;;;;;34.07;31.77;;;;;;;11.47;100.00;99028.78;5051300;28;20427;-44
2022/09/27 04:19:41;;;;;;;33.30;30.60;;;;;;;11.43;100.00;99028.50;5045821;28;20481;-41
2022/09/27 04:22:09;;;;;;;34.30;31.57;;;;;;;11.44;100.00;99029.31;5042580;28;21013;-41
2022/09/27 04:24:37;;;;;;;32.17;29.80;;;;;;;11.43;100.00;99025.84;5051156;28;20431;-41
2022/09/27 04:27:06;;;;;;;34.30;31.47;;;;;;;11.42;100.00;99034.06;5051510;28;20457;-42
2022/09/27 04:29:34;;;;;;;32.20;29.40;;;;;;;11.38;100.00;99030.28;5051671;28;20507;-43
2022/09/27 04:32:02;;;;;;;30.13;28.23;;;;;;;11.34;100.00;99024.63;5051035;28;20497;-41
2022/09/27 04:37:14;;;;;;;28.13;26.43;;;;;;;11.29;100.00;99032.53;5031608;28;20833;-41
2022/09/27 04:39:42;;;;;;;28.40;26.63;;;;;;;11.32;100.00;99025.91;5031694;28;20436;-42
2022/09/27 04:42:11;;;;;;;33.87;31.17;;;;;;;11.33;100.00;99030.19;5031107;28;20487;-41
2022/09/27 04:44:39;;;;;;;31.13;28.77;;;;;;;11.36;100.00;99027.03;5032751;28;20432;-42
2022/09/27 04:47:06;;;;;;;32.10;29.80;;;;;;;11.35;100.00;99030.78;5071402;28;20438;-42
2022/09/27 04:49:39;;;;;;;30.33;28.20;;;;;;;11.35;100.00;99028.88;5071285;28;20438;-42
2022/09/27 04:52:07;;;;;;;30.93;28.67;;;;;;;11.37;100.00;99026.00;5070944;28;20515;-42
2022/09/27 04:54:34;;;;;;;30.40;28.00;;;;;;;11.34;100.00;99032.63;5070704;28;20992;-46
2022/09/27 04:57:02;;;;;;;28.73;26.43;;;;;;;11.25;100.00;99028.75;5071186;28;20434;-43
2022/09/27 04:59:31;;;;;;;30.27;27.77;;;;;;;11.18;100.00;99029.94;5071688;28;20484;-43
2022/09/27 05:01:59;;;;;;;31.17;28.33;;;;;;;11.11;100.00;99022.09;5070852;28;20895;-41
2022/09/27 05:04:27;;;;;;;31.90;28.70;;;;;;;11.11;100.00;99030.91;5071184;28;20515;-41
2022/09/27 05:06:55;;;;;;;32.30;29.60;;;;;;;11.05;100.00;99034.53;5070628;28;21010;-43
2022/09/27 05:09:24;;;;;;;29.20;27.30;;;;;;;10.96;100.00;99043.19;5070845;28;20520;-43
2022/09/27 05:11:51;;;;;;;27.13;25.03;;;;;;;10.89;100.00;99037.19;5070703;28;20450;-42
2022/09/27 05:14:19;;;;;;;25.17;23.60;;;;;;;10.78;100.00;99036.19;5070988;28;20587;-44
2022/09/27 05:16:48;;;;;;;24.70;23.03;;;;;;;10.69;100.00;99040.31;5070623;28;20584;-43
2022/09/27 05:19:16;;;;;;;25.47;23.70;;;;;;;10.66;100.00;99045.28;5065858;28;20470;-42
2022/09/27 05:21:43;;;;;;;25.77;24.10;;;;;;;10.59;100.00;99047.28;5062027;28;20447;-41
2022/09/27 05:24:11;;;;;;;24.47;22.80;;;;;;;10.56;100.00;99053.91;5070874;28;20492;-42
2022/09/27 05:26:39;;;;;;;25.53;24.03;;;;;;;10.57;100.00;99049.38;5070647;28;20801;-41
2022/09/27 05:29:06;;;;;;;26.23;24.47;;;;;;;10.53;100.00;99041.84;5070988;28;20507;-42
2022/09/27 05:31:34;;;;;;;24.63;23.23;;;;;;;10.55;100.00;99044.28;5089085;22;20481;-46
2022/09/27 05:34:03;;;;;;;26.33;24.90;;;;;;;10.53;100.00;99049.84;5083733;28;20469;-46
2022/09/27 05:36:31;;;;;;;28.33;26.10;;;;;;;10.51;100.00;99045.81;5094284;28;21000;-46
2022/09/27 05:38:58;;;;;;;26.77;25.30;;;;;;;10.48;100.00;99052.41;5094830;28;20930;-46
2022/09/27 05:41:26;;;;;;;27.40;25.53;;;;;;;10.48;100.00;99041.75;5094520;28;20480;-46
2022/09/27 05:43:54;;;;;;;25.90;24.40;;;;;;;10.48;100.00;99043.63;5094859;28;20517;-50
2022/09/27 05:46:22;;;;;;;24.03;22.70;;;;;;;10.44;100.00;99051.28;5094164;28;20502;-47
2022/09/27 05:48:50;;;;;;;25.20;23.90;;;;;;;10.44;100.00;99048.59;5094796;28;20794;-49
2022/09/27 05:51:19;;;;;;;23.73;22.63;;;;;;;10.33;100.00;99049.47;5094257;28;20433;-46
2022/09/27 05:53:47;;;;;;;23.33;22.13;;;;;;;10.33;100.00;99049.47;5094806;28;20522;-47
2022/09/27 05:56:15;;;;;;;23.20;22.10;;;;;;;10.34;100.00;99044.91;5094162;28;20461;-47
2022/09/27 05:58:43;;;;;;;23.47;22.37;;;;;;;10.29;100.00;99045.63;5094915;28;20487;-49
2022/09/27 06:01:11;;;;;;;23.63;22.20;;;;;;;10.29;100.00;99045.63;5094132;28;20478;-47
2022/09/27 06:03:40;;;;;;;22.77;21.77;;;;;;;10.31;100.00;99048.88;5094297;28;20430;-48
2022/09/27 06:06:09;;;;;;;23.03;21.80;;;;;;;10.27;100.00;99046.94;5093899;28;20510;-46
2022/09/27 06:08:39;;;;;;;23.63;22.27;;;;;;;10.27;100.00;99047.75;5094535;28;20433;-49
2022/09/27 06:11:08;;;;;;;22.87;21.67;;;;;;;10.27;100.00;99046.94;5094256;28;20494;-51
2022/09/27 06:13:36;;;;;;;23.83;22.60;;;;;;;10.26;100.00;99048.78;5094126;28;21025;-49
2022/09/27 06:16:05;;;;;;;23.60;22.47;;;;;;;10.19;100.00;99052.59;5093496;28;20457;-52
2022/09/27 06:18:32;;;;;;;23.93;22.57;;;;;;;10.27;100.00;99049.59;5094296;28;20456;-52
2022/09/27 06:21:01;;;;;;;24.57;22.60;;;;;;;10.26;100.00;99056.75;5068591;28;20426;-55
2022/09/27 06:23:31;;;;;;;23.77;22.53;;;;;;;10.27;100.00;99058.41;5073839;28;20449;-52
2022/09/27 06:26:03;;;;;;;24.53;23.00;;;;;;;10.28;100.00;99056.50;5073441;28;20570;-50
2022/09/27 06:28:31;;;;;;;25.37;23.23;;;;;;;10.33;100.00;99048.66;5073569;28;20487;-51
2022/09/27 06:31:00;;;;;;;24.20;23.00;;;;;;;10.29;100.00;99060.81;5073591;28;20508;-52
2022/09/27 06:33:28;;;;;;;24.20;22.80;;;;;;;10.32;100.00;99057.69;5073453;28;20557;-50
2022/09/27 06:35:56;;;;;;;26.80;24.20;;;;;;;10.25;100.00;99060.47;5073210;28;20466;-49
2022/09/27 06:38:24;;;;;;;24.20;22.50;;;;;;;10.26;100.00;99062.09;5073532;28;20434;-47
2022/09/27 06:40:52;;;;;;;23.50;22.17;;;;;;;10.28;100.00;99067.16;5073216;28;20438;-53
2022/09/27 06:43:21;;;;;;;24.10;22.70;;;;;;;10.29;100.00;99060.81;5073283;28;20479;-46
2022/09/27 06:45:49;;;;;;;23.97;22.63;;;;;;;10.28;100.00;99065.31;5073011;28;20458;-47
2022/09/27 06:48:17;;;;;;;24.80;23.40;;;;;;;10.30;100.00;99071.25;5073464;28;20480;-51
2022/09/27 06:50:46;;;;;;;24.47;22.83;;;;;;;10.34;100.00;99069.72;5073123;28;20427;-50
2022/09/27 06:53:15;;;;;;;24.60;22.93;;;;;;;10.30;100.00;99070.44;5072914;28;20454;-50
2022/09/27 06:55:44;;;;;;;22.83;21.73;;;;;;;10.31;100.00;99066.69;5072741;28;20592;-50
2022/09/27 07:00:58;;;;;;;24.87;22.87;;;;;;;10.41;100.00;99081.06;5073134;28;20791;-52
2022/09/27 07:03:30;;;;;;;24.23;22.83;;;;;;;10.38;100.00;99078.06;5072827;28;21020;-52
2022/09/27 07:06:05;;;;;;;24.43;22.93;;;;;;;10.37;100.00;99084.41;5072452;28;20465;-51
2022/09/27 07:08:34;;;;;;;23.97;22.57;;;;;;;10.42;100.00;99085.31;5073125;28;20797;-51
2022/09/27 07:11:04;;;;;;;25.73;23.87;;;;;;;10.43;100.00;99086.94;5072671;28;20939;-49
2022/09/27 07:13:33;;;;;;;26.63;24.53;;;;;;;10.50;100.00;99092.97;5072657;28;20503;-51
2022/09/27 07:16:02;;;;;;;24.23;22.63;;;;;;;10.59;100.00;99089.94;5072382;28;20557;-52
2022/09/27 07:18:30;;;;;;;24.63;22.83;;;;;;;10.63;100.00;99091.91;5072576;28;21065;-51
2022/09/27 07:20:59;;;;;;;24.60;23.03;;;;;;;10.65;100.00;99094.31;5072508;28;20447;-51
2022/09/27 07:23:27;;;;;;;25.07;23.40;;;;;;;10.72;100.00;99095.00;5072660;28;20442;-52
2022/09/27 07:25:55;;;;;;;23.27;21.70;;;;;;;10.69;100.00;99090.94;5072212;28;20515;-52
2022/09/27 07:28:23;;;;;;;24.40;22.87;;;;;;;10.77;100.00;99097.75;5072506;28;20426;-52
2022/09/27 07:30:55;;;;;;;25.40;23.80;;;;;;;10.82;100.00;99104.00;5072276;28;20433;-50
2022/09/27 07:33:24;;;;;;;25.57;23.53;;;;;;;10.77;100.00;99095.91;5072270;28;20990;-52
2022/09/27 07:35:52;;;;;;;23.67;22.50;;;;;;;10.76;100.00;99104.13;5071932;28;20519;-52
2022/09/27 07:38:19;;;;;;;25.10;23.50;;;;;;;10.78;100.00;99096.72;5072440;28;20442;-52
2022/09/27 07:40:47;;;;;;;24.90;23.60;;;;;;;10.73;100.00;99107.25;5072197;28;20434;-52
2022/09/27 07:43:15;;;;;;;24.90;23.60;;;;;;;10.79;100.00;99106.31;5072152;28;20876;-51
2022/09/27 07:45:42;;;;;;;25.40;23.77;;;;;;;10.78;100.00;99104.72;5071639;28;20982;-48
2022/09/27 07:48:13;;;;;;;24.63;23.33;;;;;;;10.79;100.00;99108.97;5072347;28;20471;-46
2022/09/27 07:50:42;;;;;;;24.77;23.37;;;;;;;10.75;100.00;99105.97;5072261;28;20430;-46
2022/09/27 07:53:12;;;;;;;24.13;22.93;;;;;;;10.80;100.00;99107.94;5072134;28;20835;-46
2022/09/27 07:55:41;;;;;;;25.13;23.50;;;;;;;10.82;100.00;99109.31;5071575;28;20830;-47
2022/09/27 07:58:10;;;;;;;26.10;24.40;;;;;;;10.85;100.00;99113.38;5071560;28;20434;-46
2022/09/27 08:00:39;;;;;;;24.37;22.97;;;;;;;10.80;100.00;99108.75;5072175;28;20438;-46
2022/09/27 08:03:08;;;;;;;24.63;23.43;;;;;;;10.86;100.00;99112.31;5071867;28;20476;-46
2022/09/27 08:05:36;;;;;;;24.97;23.50;;;;;;;10.88;100.00;99112.88;5071402;28;20462;-49
2022/09/27 08:08:05;;;;;;;24.97;22.97;;;;;;;10.88;100.00;99110.22;5071963;28;20830;-50
2022/09/27 08:10:34;;;;;;;25.73;23.90;;;;;;;10.90;100.00;99119.59;5071731;28;20442;-53
2022/09/27 08:13:02;;;;;;;25.67;23.83;;;;;;;10.90;100.00;99116.16;5071751;28;20893;-52
2022/09/27 08:15:31;;;;;;;25.83;24.43;;;;;;;10.94;100.00;99117.28;5071432;28;20470;-51
2022/09/27 08:17:59;;;;;;;25.87;24.27;;;;;;;10.89;100.00;99114.53;5071861;28;20830;-52
2022/09/27 08:20:27;;;;;;;24.93;23.70;;;;;;;10.87;100.00;99120.06;5065931;28;20438;-51
2022/09/27 08:22:54;;;;;;;26.00;24.50;;;;;;;10.88;100.00;99120.88;5071406;28;20508;-53
2022/09/27 08:25:23;;;;;;;25.20;23.90;;;;;;;10.86;100.00;99120.31;5071164;28;20459;-51
2022/09/27 08:27:56;;;;;;;25.43;23.83;;;;;;;10.85;100.00;99126.69;5071889;28;20434;-51
2022/09/27 08:30:24;;;;;;;26.20;24.60;;;;;;;10.91;100.00;99126.56;5071821;28;20438;-51
2022/09/27 08:32:55;;;;;;;26.07;24.50;;;;;;;10.96;100.00;99140.00;5071399;28;20876;-53
2022/09/27 08:35:23;;;;;;;25.90;24.50;;;;;;;10.98;100.00;99135.25;5071255;28;20867;-52
2022/09/27 08:37:55;;;;;;;26.47;24.50;;;;;;;10.99;100.00;99128.06;5071503;28;20434;-53
2022/09/27 08:40:31;;;;;;;26.37;24.83;;;;;;;11.00;100.00;99130.47;5071838;28;20434;-50
2022/09/27 08:43:06;;;;;;;26.00;24.40;;;;;;;11.00;100.00;99135.00;5071314;28;20446;-51
2022/09/27 08:45:41;;;;;;;25.20;23.80;;;;;;;11.08;100.00;99137.28;5071278;28;20461;-48
2022/09/27 08:48:10;;;;;;;27.07;24.87;;;;;;;11.15;100.00;99143.28;5071523;28;20425;-53
2022/09/27 08:50:42;;;;;;;24.83;23.50;;;;;;;11.23;100.00;99134.88;5071730;28;20442;-53
2022/09/27 08:53:19;;;;;;;25.20;23.70;;;;;;;11.29;100.00;99139.25;5071579;28;20476;-51
2022/09/27 08:55:51;;;;;;;26.47;24.83;;;;;;;11.38;100.00;99145.06;5071086;28;20539;-55
2022/09/27 08:58:23;;;;;;;25.50;24.10;;;;;;;11.36;100.00;99147.94;5071508;28;20488;-53
2022/09/27 09:00:54;;;;;;;26.17;24.17;;;;;;;11.49;100.00;99146.84;5071112;28;20435;-51
2022/09/27 09:03:25;;;;;;;25.47;23.83;;;;;;;11.47;100.00;99143.56;5071502;28;20537;-51
2022/09/27 09:06:07;;;;;;;26.17;24.47;;;;;;;11.50;100.00;99143.91;5070850;28;21191;-51
2022/09/27 09:08:42;;;;;;;24.70;23.40;;;;;;;11.59;100.00;99150.47;5071666;28;20476;-47
2022/09/27 09:14:38;;;;;;;25.73;24.30;;;;;;;11.68;100.00;99150.09;5075059;28;20483;-50
2022/09/27 09:17:20;;;;;;;25.63;24.10;;;;;;;11.76;100.00;99157.72;5074927;28;20499;-51
2022/09/27 09:20:02;;;;;;;26.40;24.57;;;;;;;11.88;100.00;99153.94;5075133;28;20458;-52
2022/09/27 09:22:44;;;;;;;26.33;24.83;;;;;;;12.02;100.00;99152.53;5074806;28;20495;-52
2022/09/27 09:25:23;;;;;;;25.93;24.13;;;;;;;12.12;100.00;99158.06;5074534;28;20877;-52
2022/09/27 09:28:04;;;;;;;26.07;24.17;;;;;;;12.19;100.00;99160.53;5075138;28;20464;-47
2022/09/27 09:30:40;;;;;;;24.57;23.27;;;;;;;12.35;100.00;99162.38;5074984;28;20434;-52
2022/09/27 09:33:18;;;;;;;25.40;23.90;;;;;;;12.57;100.00;99163.19;5074732;28;20470;-46
2022/09/27 09:35:53;;;;;;;26.60;24.90;;;;;;;12.66;100.00;99160.94;5074270;28;20473;-48
2022/09/27 09:38:26;;;;;;;25.47;23.90;;;;;;;12.80;100.00;99150.66;5074841;28;20753;-46
2022/09/27 09:40:58;;;;;;;23.60;22.43;;;;;;;12.96;100.00;99157.81;5074509;28;20438;-46
2022/09/27 09:43:33;;;;;;;23.80;22.53;;;;;;;12.74;100.00;99163.16;5074489;28;20472;-50
2022/09/27 09:46:05;;;;;;;25.80;24.20;;;;;;;13.00;100.00;99162.41;5074093;28;20873;-49
2022/09/27 09:48:43;;;;;;;25.20;23.90;;;;;;;13.21;100.00;99172.31;5074264;28;20920;-50
2022/09/27 09:51:17;;;;;;;26.10;24.53;;;;;;;13.36;100.00;99168.97;5074237;28;20483;-47
2022/09/27 09:53:51;;;;;;;24.27;23.17;;;;;;;13.39;100.00;99165.78;5074773;28;20426;-48
2022/09/27 09:56:24;;;;;;;24.13;22.93;;;;;;;13.37;100.00;99162.56;5073893;28;20551;-46
2022/09/27 09:58:56;;;;;;;24.20;22.97;;;;;;;13.48;100.00;99166.16;5074153;28;20443;-48
2022/09/27 10:01:28;;;;;;;24.57;23.30;;;;;;;13.46;100.00;99176.31;5074172;28;20462;-46
2022/09/27 10:03:56;;;;;;;22.97;21.93;;;;;;;13.53;100.00;99167.00;5074171;28;20934;-50
2022/09/27 10:06:26;;;;;;;23.73;22.73;;;;;;;13.64;100.00;99168.72;5073645;28;20496;-52
2022/09/27 10:08:54;;;;;;;22.73;21.83;;;;;;;13.62;100.00;99168.16;5074117;28;20492;-44
2022/09/27 10:11:25;;;;;;;22.23;21.33;;;;;;;13.42;100.00;99176.00;5073536;28;20439;-49
2022/09/27 10:13:55;;;;;;;23.17;22.07;;;;;;;13.32;100.00;99176.69;5073894;28;20953;-50
2022/09/27 10:16:27;;;;;;;22.67;21.67;;;;;;;13.38;100.00;99176.78;5073450;28;20536;-49
2022/09/27 10:19:00;;;;;;;23.27;21.83;;;;;;;13.11;100.00;99174.88;5071753;28;20426;-51
2022/09/27 10:21:30;;;;;;;22.97;21.97;;;;;;;13.15;100.00;99172.50;5070561;28;20450;-53
2022/09/27 10:24:08;;;;;;;22.23;21.33;;;;;;;13.03;100.00;99177.16;5073632;28;20426;-48
2022/09/27 10:26:45;;;;;;;22.60;21.70;;;;;;;13.08;100.00;99175.38;5073106;28;20570;-48
2022/09/27 10:29:23;;;;;;;23.03;21.87;;;;;;;12.97;100.00;99168.25;5073599;28;20484;-50
2022/09/27 10:31:52;;;;;;;23.37;22.30;;;;;;;13.09;100.00;99171.63;5073134;28;20893;-48
2022/09/27 10:34:30;;;;;;;23.77;22.57;;;;;;;13.16;100.00;99177.63;5073233;28;20521;-49
2022/09/27 10:37:16;;;;;;;24.23;23.00;;;;;;;13.19;100.00;99178.97;5073130;28;20543;-47
2022/09/27 10:39:45;;;;;;;22.93;21.87;;;;;;;13.40;100.00;99178.13;5073370;28;20431;-51
2022/09/27 10:42:31;;;;;;;22.63;21.63;;;;;;;13.19;100.00;99173.63;5072912;28;20461;-49
2022/09/27 10:45:22;;;;;;;22.10;21.10;;;;;;;13.16;100.00;99182.97;5072609;28;21025;-47
2022/09/27 10:47:50;;;;;;;21.80;20.80;;;;;;;13.12;100.00;99192.56;5073141;28;20796;-51
2022/09/27 10:50:24;;;;;;;22.17;21.13;;;;;;;13.05;100.00;99177.72;5073096;28;20503;-46
2022/09/27 10:53:14;;;;;;;21.97;20.90;;;;;;;12.99;100.00;99176.03;5072926;28;20991;-50
2022/09/27 10:55:46;;;;;;;21.77;20.80;;;;;;;13.01;100.00;99187.31;5072674;28;20528;-50
2022/09/27 10:58:19;;;;;;;21.80;20.80;;;;;;;12.95;100.00;99181.09;5073054;28;20935;-52
2022/09/27 11:00:56;;;;;;;21.20;20.30;;;;;;;12.92;100.00;99178.91;5072684;28;20484;-46
2022/09/27 11:03:27;;;;;;;22.10;21.00;;;;;;;13.12;100.00;99181.03;5072767;28;20460;-48
2022/09/27 11:05:55;;;;;;;22.03;21.20;;;;;;;13.15;100.00;99181.34;5072528;28;20462;-46
2022/09/27 11:08:29;;;;;;;22.80;21.90;;;;;;;13.19;100.00;99176.31;5072830;28;20434;-44
2022/09/27 11:11:16;;;;;;;21.57;20.67;;;;;;;13.12;100.00;99183.69;5072574;28;20434;-47
2022/09/27 11:13:58;;;;;;;21.60;20.60;;;;;;;13.07;100.00;99192.47;5072744;28;20430;-50
2022/09/27 11:16:41;;;;;;;22.50;21.60;;;;;;;13.10;100.00;99183.97;5072279;28;20889;-51
2022/09/27 11:19:21;;;;;;;22.90;21.50;;;;;;;13.23;100.00;99186.25;5072655;28;20524;-51
2022/09/27 11:21:55;;;;;;;21.87;21.00;;;;;;;13.20;100.00;99189.41;5064373;28;20457;-47
2022/09/27 11:24:40;;;;;;;22.33;21.43;;;;;;;13.19;100.00;99189.69;5072387;28;20456;-48
2022/09/27 11:27:19;;;;;;;20.93;20.10;;;;;;;13.43;100.00;99192.88;5072507;28;20443;-48
2022/09/27 11:30:01;;;;;;;22.00;20.90;;;;;;;13.40;100.00;99190.72;5072478;28;20426;-49
2022/09/27 11:32:45;;;;;;;22.20;21.20;;;;;;;13.51;100.00;99195.09;5071398;28;20511;-52
2022/09/27 11:35:31;;;;;;;24.03;22.87;;;;;;;13.66;100.00;99193.38;5072164;28;20524;-50
2022/09/27 11:38:11;;;;;;;21.87;20.77;;;;;;;13.66;100.00;99193.38;5072189;28;20476;-51